Kimberley RES. Station, Western Australia

4:54 PM AWST on October 22, 2014 (GMT +0800)
Kununurra | Change Station
CLOSE
Current Station
Airport
Location: Kununurra,
Elevation: 144 ft
Nearby Weather Stations

Elev 144 ft 15.78 °S, 128.71 °E | Updated 24 minutes ago

Clear
Clear
97 °F
Feels Like 98 °F
N
12
Wind Variable Wind from North

Today
High -- | Low -- °F
--% Chance of Precip.
Yesterday
High -- | Low -- °F
Precip. -- in
4:53 AM 5:25 PM
Waning Crescent, 2% visible
Pressure 29.80 in
Visibility 6.2 miles
Clouds
Heat Index 98 °F
Dew Point 63 °F
Humidity 32%
Rainfall 0.00 in
Snow Depth Not available.
UV Not available.
Pollen Not available.
Air Quality Not available.
Flu Activity Not available.
METAR YPKU 220830Z AUTO 35010KT 9999 // NCD 36/17 Q1009

More Conditions Fewer Conditions

Pressure 29.80 in
Visibility 6.2 miles
Clouds
Heat Index 98 °F
Dew Point 63 °F
Humidity 32%
Rainfall 0.00 in
Snow Depth Not available.
UV Not available.
Pollen Not available.
Air Quality Not available.
Flu Activity Not available.
METAR YPKU 220830Z AUTO 35010KT 9999 // NCD 36/17 Q1009

More Conditions Fewer Conditions

10-Day Weather Forecast

Almanac

Astronomy

Oct. 22, 2014 Rise Set
Actual Time 4:53 AM AWST 5:25 PM AWST
Civil Twilight 4:31 AM AWST 5:47 PM AWST
Nautical Twilight 4:06 AM AWST 6:13 PM AWST
Astronomical Twilight 3:40 AM AWST 6:39 PM AWST
Moon 3:35 AM AWST 4:05 PM AWST
Length of Visible Light 13h 15m
Length of Day
12h 31m
Tomorrow will be 0m 50s longer.
Waning Crescent, 2% of the Moon is Illuminated
Today
Waning Crescent
Oct 23
New
Oct 30
First Quarter
Nov 6
Full
Nov 14
Last Quarter

Yesterday's Extremes

Country Highs Country Lows

Community

WunderPhotos

Upload Photos

1,763,889 photos uploaded!

Nearby

Snow Depth

Not available.

Earthquake Activity

City Distance Mag. Time & Date
No recent earthquake activity has been reported nearby.
Minimum magnitude displayed is 2.5.

Coastal Water Temperatures

Place Temperature
No Stations Reporting

Nearby Weather Stations